Time;durP1;ratioP1;P1;durP2;ratioP2;P2;SDS_P1;SDS_P2;PMS_P1;PMS_P2;Temp;Humidity;BMP_temperature;BMP_pressure;BME280_temperature;BME280_humidity;BME280_pressure;Samples;Min_cycle;Max_cycle;Signal;HPM_P1;HPM_P2
2022/08/17 00:00:37;;;;;;;12.95;4.40;;;;;;;;;;4948495;28;20450;-74
2022/08/17 00:03:24;;;;;;;14.27;4.22;;;;;;;;;;4927989;28;20427;-73
2022/08/17 00:06:01;;;;;;;11.23;4.20;;;;;;;;;;4927613;29;20187;-74
2022/08/17 00:08:43;;;;;;;14.30;4.65;;;;;;;;;;4928020;29;20087;-72
2022/08/17 00:11:14;;;;;;;12.45;4.45;;;;;;;;;;4928318;29;20569;-71
2022/08/17 00:13:44;;;;;;;13.70;4.15;;;;;;;;;;4928004;29;20044;-72
2022/08/17 00:16:16;;;;;;;11.48;4.30;;;;;;;;;;4945607;28;20047;-72
2022/08/17 00:18:43;;;;;;;12.48;4.20;;;;;;;;;;4951258;28;20054;-72
2022/08/17 00:21:10;;;;;;;15.60;4.35;;;;;;;;;;4949153;28;20075;-74
2022/08/17 00:23:37;;;;;;;14.70;4.88;;;;;;;;;;4951625;28;20071;-73
2022/08/17 00:26:03;;;;;;;10.90;4.20;;;;;;;;;;4951692;28;20054;-74
2022/08/17 00:28:29;;;;;;;16.30;4.40;;;;;;;;;;4949158;29;20055;-73
2022/08/17 00:30:55;;;;;;;17.52;4.78;;;;;;;;;;4951187;28;20086;-73
2022/08/17 00:33:24;;;;;;;18.48;5.10;;;;;;;;;;4948460;28;20098;-75
2022/08/17 00:35:50;;;;;;;15.15;4.53;;;;;;;;;;4931657;29;20054;-73
2022/08/17 00:38:17;;;;;;;14.35;5.18;;;;;;;;;;4932690;29;20047;-74
2022/08/17 00:40:46;;;;;;;12.60;4.97;;;;;;;;;;4933145;29;20091;-72
2022/08/17 00:43:14;;;;;;;18.58;5.32;;;;;;;;;;4930892;29;20498;-73
2022/08/17 00:45:41;;;;;;;15.30;5.43;;;;;;;;;;4931238;29;20119;-74
2022/08/17 00:48:07;;;;;;;17.85;5.22;;;;;;;;;;4931727;29;20048;-73
2022/08/17 00:50:34;;;;;;;16.02;5.45;;;;;;;;;;4950304;28;20345;-72
2022/08/17 00:53:00;;;;;;;11.80;5.45;;;;;;;;;;4952319;28;20563;-74
2022/08/17 00:55:26;;;;;;;17.65;5.63;;;;;;;;;;4950159;28;20047;-72
2022/08/17 00:57:57;;;;;;;12.57;5.00;;;;;;;;;;4949578;28;20056;-76
2022/08/17 01:00:27;;;;;;;13.32;5.05;;;;;;;;;;4954506;28;20047;-73
2022/08/17 01:02:59;;;;;;;13.52;5.53;;;;;;;;;;4952720;28;20051;-73
2022/08/17 01:05:28;;;;;;;16.90;5.43;;;;;;;;;;4950577;28;20413;-74
2022/08/17 01:07:54;;;;;;;15.15;5.70;;;;;;;;;;4949327;28;20501;-72
2022/08/17 01:10:25;;;;;;;13.48;4.97;;;;;;;;;;4950129;28;20110;-72
2022/08/17 01:12:52;;;;;;;15.73;5.53;;;;;;;;;;4949902;28;20059;-75
2022/08/17 01:15:18;;;;;;;14.82;5.43;;;;;;;;;;4950998;28;20524;-73
2022/08/17 01:17:45;;;;;;;18.65;5.88;;;;;;;;;;4948607;28;20047;-73
2022/08/17 01:20:11;;;;;;;17.40;5.45;;;;;;;;;;4948923;28;20051;-73
2022/08/17 01:22:37;;;;;;;14.38;5.47;;;;;;;;;;4948689;28;20318;-74
2022/08/17 01:25:06;;;;;;;20.90;5.90;;;;;;;;;;4948781;28;20035;-75
2022/08/17 01:27:34;;;;;;;17.15;5.75;;;;;;;;;;4948431;28;20055;-73
2022/08/17 01:30:06;;;;;;;12.20;5.07;;;;;;;;;;4949188;28;20047;-73
2022/08/17 01:32:32;;;;;;;15.18;5.22;;;;;;;;;;4953013;28;20047;-74
2022/08/17 01:35:01;;;;;;;20.33;5.43;;;;;;;;;;4953450;29;20039;-75
2022/08/17 01:37:35;;;;;;;13.63;5.60;;;;;;;;;;4954193;28;20047;-74
2022/08/17 01:40:13;;;;;;;19.85;6.40;;;;;;;;;;4956487;28;20059;-73
2022/08/17 01:42:56;;;;;;;21.08;7.00;;;;;;;;;;4973381;28;20517;-72
2022/08/17 01:45:32;;;;;;;26.00;7.05;;;;;;;;;;4972759;28;20108;-73
2022/08/17 01:47:59;;;;;;;19.35;6.47;;;;;;;;;;4972459;28;20477;-71
2022/08/17 01:50:29;;;;;;;24.73;6.95;;;;;;;;;;4969501;28;20054;-73
2022/08/17 01:52:58;;;;;;;20.25;6.72;;;;;;;;;;4968125;28;20049;-72
2022/08/17 01:55:32;;;;;;;19.55;6.90;;;;;;;;;;4971263;28;20051;-73
2022/08/17 01:57:58;;;;;;;16.83;6.32;;;;;;;;;;4971395;28;20051;-73
2022/08/17 02:00:25;;;;;;;13.98;6.40;;;;;;;;;;4971248;28;20054;-73
2022/08/17 02:02:51;;;;;;;17.38;7.22;;;;;;;;;;4973097;28;20495;-73
2022/08/17 02:05:17;;;;;;;18.98;6.38;;;;;;;;;;4973088;28;20043;-73
2022/08/17 02:07:44;;;;;;;17.38;6.25;;;;;;;;;;4970730;28;20127;-74
2022/08/17 02:10:10;;;;;;;15.35;6.13;;;;;;;;;;4970054;28;20042;-73
2022/08/17 02:12:36;;;;;;;18.98;6.78;;;;;;;;;;4932624;28;20052;-72
2022/08/17 02:15:05;;;;;;;19.27;7.30;;;;;;;;;;4942229;28;20054;-76
2022/08/17 02:17:31;;;;;;;19.17;7.13;;;;;;;;;;4950466;28;20051;-76
2022/08/17 02:19:57;;;;;;;23.20;6.93;;;;;;;;;;4950408;29;20055;-74
2022/08/17 02:22:24;;;;;;;14.02;6.28;;;;;;;;;;4950638;28;20043;-71
2022/08/17 02:24:53;;;;;;;14.30;7.28;;;;;;;;;;4952323;28;20043;-71
2022/08/17 02:27:19;;;;;;;22.13;7.30;;;;;;;;;;4933600;28;20405;-74
2022/08/17 02:29:45;;;;;;;16.05;6.75;;;;;;;;;;4933372;29;20044;-72
2022/08/17 02:32:22;;;;;;;16.02;6.38;;;;;;;;;;4957250;28;20053;-74
2022/08/17 02:34:49;;;;;;;16.38;7.10;;;;;;;;;;4972092;28;20105;-74
2022/08/17 02:37:18;;;;;;;15.23;6.70;;;;;;;;;;4972839;28;20556;-73
2022/08/17 02:39:45;;;;;;;21.98;6.53;;;;;;;;;;4973238;28;20509;-74
2022/08/17 02:42:13;;;;;;;19.45;6.90;;;;;;;;;;4970580;28;20082;-72
2022/08/17 02:44:39;;;;;;;16.42;6.47;;;;;;;;;;4934786;28;20048;-73
2022/08/17 02:47:06;;;;;;;20.35;6.97;;;;;;;;;;4933265;29;20043;-74
2022/08/17 02:49:32;;;;;;;18.00;6.60;;;;;;;;;;4946001;28;20057;-72
2022/08/17 02:52:02;;;;;;;17.85;6.60;;;;;;;;;;4948408;28;20456;-75
2022/08/17 02:54:28;;;;;;;20.33;6.85;;;;;;;;;;4949017;28;20058;-76
2022/08/17 02:56:54;;;;;;;23.70;6.97;;;;;;;;;;4948836;28;20047;-72
2022/08/17 02:59:20;;;;;;;18.20;6.45;;;;;;;;;;4948674;28;20051;-74
2022/08/17 03:01:46;;;;;;;20.88;7.45;;;;;;;;;;4947743;28;20105;-74
2022/08/17 03:04:12;;;;;;;21.88;6.45;;;;;;;;;;4947505;28;20368;-73
2022/08/17 03:06:37;;;;;;;14.77;6.70;;;;;;;;;;4962047;28;20055;-74
2022/08/17 03:09:03;;;;;;;17.35;6.68;;;;;;;;;;4965690;28;20113;-71
2022/08/17 03:11:29;;;;;;;16.42;6.25;;;;;;;;;;4965932;28;20107;-75
2022/08/17 03:13:55;;;;;;;17.08;7.15;;;;;;;;;;4966623;28;20141;-75
2022/08/17 03:16:22;;;;;;;23.20;5.85;;;;;;;;;;4966679;28;20454;-74
2022/08/17 03:18:49;;;;;;;14.35;5.70;;;;;;;;;;4967207;28;20050;-74
2022/08/17 03:21:14;;;;;;;16.55;5.95;;;;;;;;;;4960351;28;20400;-73
2022/08/17 03:23:41;;;;;;;13.15;5.65;;;;;;;;;;4944432;28;20047;-73
2022/08/17 03:26:09;;;;;;;14.82;5.93;;;;;;;;;;4946907;28;20069;-74
2022/08/17 03:28:35;;;;;;;14.95;6.30;;;;;;;;;;4947110;28;20583;-74
2022/08/17 03:31:01;;;;;;;17.75;6.28;;;;;;;;;;4947512;28;20496;-73
2022/08/17 03:33:28;;;;;;;15.80;5.97;;;;;;;;;;4947201;28;20043;-74
2022/08/17 03:35:54;;;;;;;13.45;5.63;;;;;;;;;;4946084;28;20051;-74
2022/08/17 03:38:20;;;;;;;15.68;5.82;;;;;;;;;;4946613;28;20209;-75
2022/08/17 03:40:48;;;;;;;15.55;6.07;;;;;;;;;;4947469;28;20054;-74
2022/08/17 03:43:14;;;;;;;16.17;5.85;;;;;;;;;;4947442;28;20055;-74
2022/08/17 03:56:51;;;;;;;16.50;6.28;;;;;;;;;;4958949;28;20203;-73
2022/08/17 03:59:20;;;;;;;19.23;7.30;;;;;;;;;;4969460;28;20054;-73
2022/08/17 04:01:49;;;;;;;16.63;6.00;;;;;;;;;;4971713;28;20122;-73
2022/08/17 04:04:16;;;;;;;13.73;6.40;;;;;;;;;;4974587;28;20434;-74
2022/08/17 04:06:43;;;;;;;12.77;6.65;;;;;;;;;;4971877;28;20055;-74
2022/08/17 04:09:10;;;;;;;19.48;6.40;;;;;;;;;;4971071;28;20042;-73
2022/08/17 04:11:37;;;;;;;16.95;6.63;;;;;;;;;;4955219;28;20072;-74
2022/08/17 04:14:03;;;;;;;12.63;6.57;;;;;;;;;;4954181;28;20178;-73
2022/08/17 04:16:29;;;;;;;12.18;7.13;;;;;;;;;;4935263;29;20063;-75
2022/08/17 04:18:55;;;;;;;12.00;7.43;;;;;;;;;;4951036;29;20047;-76
2022/08/17 04:21:22;;;;;;;12.25;6.75;;;;;;;;;;4950545;28;20103;-75
2022/08/17 04:23:49;;;;;;;10.00;6.45;;;;;;;;;;4950478;28;20058;-74
2022/08/17 04:26:15;;;;;;;9.00;6.65;;;;;;;;;;4950488;28;20043;-76
2022/08/17 04:28:42;;;;;;;14.98;6.30;;;;;;;;;;4950964;28;20055;-75
2022/08/17 04:31:11;;;;;;;11.20;6.85;;;;;;;;;;4960569;28;20078;-72
2022/08/17 04:33:42;;;;;;;14.52;6.70;;;;;;;;;;4969934;28;20059;-74
2022/08/17 04:36:11;;;;;;;16.40;6.40;;;;;;;;;;4968450;28;20149;-75
2022/08/17 04:38:39;;;;;;;11.45;6.72;;;;;;;;;;4969166;28;20518;-73
2022/08/17 04:43:54;;;;;;;10.40;6.35;;;;;;;;;;4970696;28;20089;-73
2022/08/17 04:46:23;;;;;;;11.40;5.90;;;;;;;;;;4972908;28;20512;-73
2022/08/17 04:48:51;;;;;;;13.70;6.50;;;;;;;;;;4971802;28;20071;-75
2022/08/17 04:51:17;;;;;;;9.90;5.80;;;;;;;;;;4970368;28;20066;-76
2022/08/17 04:53:46;;;;;;;21.65;5.80;;;;;;;;;;4969549;28;20047;-75
2022/08/17 04:56:16;;;;;;;8.85;5.80;;;;;;;;;;4969488;28;20051;-74
2022/08/17 04:58:45;;;;;;;12.52;6.00;;;;;;;;;;4970406;28;20412;-74
2022/08/17 05:01:11;;;;;;;12.25;6.00;;;;;;;;;;4968974;28;20051;-74
2022/08/17 05:03:37;;;;;;;11.38;6.80;;;;;;;;;;4962946;28;20044;-71
2022/08/17 05:06:03;;;;;;;13.95;6.38;;;;;;;;;;4967680;28;20117;-73
2022/08/17 05:08:29;;;;;;;13.60;6.70;;;;;;;;;;4972154;28;20126;-74
2022/08/17 05:10:55;;;;;;;12.77;6.90;;;;;;;;;;4972500;28;20277;-73
2022/08/17 05:13:23;;;;;;;12.80;6.40;;;;;;;;;;4970091;28;20060;-75
2022/08/17 05:15:54;;;;;;;13.38;6.53;;;;;;;;;;4969650;28;20147;-76
2022/08/17 05:18:20;;;;;;;13.82;6.90;;;;;;;;;;4970326;28;20050;-77
2022/08/17 05:20:46;;;;;;;10.95;6.70;;;;;;;;;;4969266;28;20504;-74
2022/08/17 05:23:15;;;;;;;17.30;7.70;;;;;;;;;;4951281;28;20070;-75
2022/08/17 05:25:44;;;;;;;13.77;6.80;;;;;;;;;;4951898;28;20390;-74
2022/08/17 05:28:11;;;;;;;12.57;7.18;;;;;;;;;;4942974;28;20379;-73
2022/08/17 05:30:39;;;;;;;11.80;7.05;;;;;;;;;;4933538;29;20063;-74
2022/08/17 05:33:11;;;;;;;14.18;6.93;;;;;;;;;;4933963;29;20067;-74
2022/08/17 05:35:39;;;;;;;12.02;7.53;;;;;;;;;;4932903;29;20050;-75
2022/08/17 05:38:06;;;;;;;15.23;7.50;;;;;;;;;;4935382;28;20141;-74
2022/08/17 05:40:33;;;;;;;14.73;7.30;;;;;;;;;;4970125;28;20047;-74
2022/08/17 05:43:15;;;;;;;16.33;8.05;;;;;;;;;;4971845;28;20130;-78
2022/08/17 05:46:13;;;;;;;13.90;7.78;;;;;;;;;;4969425;28;20287;-76
2022/08/17 05:48:54;;;;;;;15.45;8.05;;;;;;;;;;4968555;28;20050;-74
2022/08/17 05:51:32;;;;;;;15.73;7.97;;;;;;;;;;4969452;28;20454;-76
2022/08/17 05:54:34;;;;;;;16.50;8.07;;;;;;;;;;4939632;28;20506;-72
2022/08/17 05:57:17;;;;;;;19.73;9.80;;;;;;;;;;4966410;28;20061;-75
2022/08/17 05:59:57;;;;;;;19.65;9.02;;;;;;;;;;4971296;28;20127;-74
2022/08/17 06:02:41;;;;;;;16.35;9.15;;;;;;;;;;4972314;28;20090;-75
2022/08/17 06:05:49;;;;;;;17.17;9.55;;;;;;;;;;4970792;28;20053;-76
2022/08/17 06:08:34;;;;;;;17.58;10.13;;;;;;;;;;4971611;28;20568;-75
2022/08/17 06:11:06;;;;;;;14.00;9.00;;;;;;;;;;4971146;28;20051;-75
2022/08/17 06:13:59;;;;;;;17.02;9.48;;;;;;;;;;4956640;28;20055;-75
2022/08/17 06:16:31;;;;;;;16.60;9.02;;;;;;;;;;4949151;28;20047;-75
2022/08/17 06:19:03;;;;;;;17.08;9.18;;;;;;;;;;4947264;28;20202;-73
2022/08/17 06:21:34;;;;;;;15.50;9.70;;;;;;;;;;4949432;28;20059;-74
2022/08/17 06:24:23;;;;;;;16.27;9.23;;;;;;;;;;4948132;28;20540;-74
2022/08/17 06:26:52;;;;;;;17.45;9.23;;;;;;;;;;4947903;29;20051;-75
2022/08/17 06:29:37;;;;;;;21.35;9.40;;;;;;;;;;4951039;28;20151;-74
2022/08/17 06:32:07;;;;;;;20.10;10.00;;;;;;;;;;4948557;28;20070;-75
2022/08/17 06:34:33;;;;;;;17.33;9.82;;;;;;;;;;4949134;29;20111;-73
2022/08/17 06:37:08;;;;;;;28.45;10.23;;;;;;;;;;4951983;28;20047;-73
2022/08/17 06:39:48;;;;;;;25.33;9.40;;;;;;;;;;4950279;28;20058;-75
2022/08/17 06:42:32;;;;;;;23.08;10.25;;;;;;;;;;4942209;28;20123;-74
2022/08/17 06:45:04;;;;;;;16.85;9.48;;;;;;;;;;4929715;29;20392;-72
2022/08/17 06:47:53;;;;;;;28.27;9.93;;;;;;;;;;4944389;28;20412;-74
2022/08/17 06:50:40;;;;;;;21.83;9.55;;;;;;;;;;4952121;28;20103;-74
2022/08/17 06:53:19;;;;;;;16.55;9.20;;;;;;;;;;4953708;28;20059;-74
2022/08/17 06:55:54;;;;;;;19.20;9.10;;;;;;;;;;4949596;28;20059;-76
2022/08/17 06:58:22;;;;;;;21.92;9.13;;;;;;;;;;4947763;29;20134;-77
2022/08/17 07:00:53;;;;;;;22.50;9.60;;;;;;;;;;4949209;28;20059;-74
2022/08/17 07:03:19;;;;;;;17.75;9.23;;;;;;;;;;4948101;28;20134;-76
2022/08/17 07:05:55;;;;;;;16.55;8.93;;;;;;;;;;4948879;28;20403;-76
2022/08/17 07:08:34;;;;;;;16.45;9.45;;;;;;;;;;4948772;28;20062;-76
2022/08/17 07:11:05;;;;;;;20.02;9.35;;;;;;;;;;4948860;28;20377;-76
2022/08/17 07:13:51;;;;;;;17.33;9.52;;;;;;;;;;4948311;28;20047;-73
2022/08/17 07:16:31;;;;;;;14.43;9.07;;;;;;;;;;4948818;28;20055;-74
2022/08/17 07:18:58;;;;;;;28.05;10.50;;;;;;;;;;4952466;28;20051;-75
2022/08/17 07:21:43;;;;;;;27.88;9.80;;;;;;;;;;4952498;28;20074;-74
2022/08/17 07:24:21;;;;;;;24.17;9.73;;;;;;;;;;4949744;28;20052;-74
2022/08/17 07:27:11;;;;;;;19.15;9.15;;;;;;;;;;4947930;28;20525;-75
2022/08/17 07:30:05;;;;;;;21.92;9.23;;;;;;;;;;4949016;28;20059;-74
2022/08/17 07:32:44;;;;;;;25.15;9.75;;;;;;;;;;4951726;28;20366;-75
2022/08/17 07:35:28;;;;;;;24.20;9.40;;;;;;;;;;4950907;28;20047;-75
2022/08/17 07:38:13;;;;;;;23.13;9.60;;;;;;;;;;4959420;28;20061;-75
2022/08/17 07:40:44;;;;;;;19.90;9.95;;;;;;;;;;4970723;28;20050;-73
2022/08/17 07:43:22;;;;;;;19.15;9.07;;;;;;;;;;4971458;28;20069;-75
2022/08/17 07:48:37;;;;;;;18.05;8.55;;;;;;;;;;4971383;28;20051;-76
2022/08/17 07:51:25;;;;;;;15.75;8.30;;;;;;;;;;4970743;28;20058;-75
2022/08/17 07:53:59;;;;;;;18.15;8.10;;;;;;;;;;4969393;28;20051;-74
2022/08/17 07:56:44;;;;;;;15.43;7.70;;;;;;;;;;4950377;29;20417;-78
2022/08/17 07:59:14;;;;;;;19.33;8.02;;;;;;;;;;4952772;28;20090;-73
2022/08/17 08:01:43;;;;;;;11.55;7.07;;;;;;;;;;4952891;28;20110;-75
2022/08/17 08:04:24;;;;;;;12.65;6.93;;;;;;;;;;4952600;28;20811;-74
2022/08/17 08:06:53;;;;;;;15.77;7.55;;;;;;;;;;4951248;28;20057;-75
2022/08/17 08:09:41;;;;;;;14.55;8.15;;;;;;;;;;4951505;28;20118;-74
2022/08/17 08:12:32;;;;;;;13.50;8.13;;;;;;;;;;4962126;28;20481;-75
2022/08/17 08:15:08;;;;;;;12.70;7.70;;;;;;;;;;4972443;28;20065;-73
2022/08/17 08:17:44;;;;;;;14.52;7.65;;;;;;;;;;4971855;28;20050;-75
2022/08/17 08:20:12;;;;;;;17.85;8.02;;;;;;;;;;4965703;28;20049;-75
2022/08/17 08:23:18;;;;;;;10.93;7.70;;;;;;;;;;4929980;29;20506;-79
2022/08/17 08:26:02;;;;;;;14.25;7.70;;;;;;;;;;4943161;29;20431;-76
2022/08/17 08:28:45;;;;;;;15.57;6.95;;;;;;;;;;4951430;28;20103;-76
2022/08/17 08:31:44;;;;;;;16.17;7.70;;;;;;;;;;4931597;29;20079;-76
2022/08/17 08:34:17;;;;;;;12.73;7.75;;;;;;;;;;4931324;29;20083;-74
2022/08/17 08:37:08;;;;;;;12.98;7.40;;;;;;;;;;4931398;29;20044;-75
2022/08/17 08:40:07;;;;;;;16.98;8.10;;;;;;;;;;4930535;29;20048;-77
2022/08/17 08:43:04;;;;;;;16.80;7.70;;;;;;;;;;4929860;29;20449;-76
2022/08/17 08:45:44;;;;;;;13.18;7.32;;;;;;;;;;4922685;29;20079;-75
2022/08/17 08:48:36;;;;;;;16.33;8.90;;;;;;;;;;4947987;29;20951;-74
2022/08/17 08:51:08;;;;;;;13.70;8.60;;;;;;;;;;4931216;29;20059;-77
2022/08/17 08:53:37;;;;;;;23.48;8.98;;;;;;;;;;4919690;29;20051;-76
2022/08/17 08:56:03;;;;;;;16.10;8.30;;;;;;;;;;4929790;29;20106;-75
2022/08/17 08:59:09;;;;;;;16.08;8.13;;;;;;;;;;4928717;29;20493;-75
2022/08/17 09:01:45;;;;;;;18.02;8.18;;;;;;;;;;4871639;29;20049;-76
2022/08/17 09:04:48;;;;;;;20.35;9.23;;;;;;;;;;4853896;29;20791;-76
2022/08/17 09:07:49;;;;;;;19.25;9.70;;;;;;;;;;4853486;29;20064;-75
2022/08/17 09:10:29;;;;;;;17.25;9.18;;;;;;;;;;4855754;29;20109;-77
2022/08/17 09:13:02;;;;;;;18.80;10.07;;;;;;;;;;4855872;29;20145;-74
2022/08/17 09:15:37;;;;;;;20.52;9.75;;;;;;;;;;4856304;29;20352;-76
2022/08/17 09:18:22;;;;;;;15.32;10.52;;;;;;;;;;4841783;29;20147;-74
2022/08/17 09:21:46;;;;;;;20.02;9.48;;;;;;;;;;4868817;29;20057;-74
2022/08/17 09:24:19;;;;;;;16.10;10.97;;;;;;;;;;4855779;29;20049;-75
2022/08/17 09:26:53;;;;;;;20.63;14.40;;;;;;;;;;4854369;29;20415;-76
2022/08/17 09:29:24;;;;;;;25.27;15.07;;;;;;;;;;4854380;29;20516;-75
2022/08/17 09:32:00;;;;;;;32.05;15.52;;;;;;;;;;4853509;29;20529;-74
2022/08/17 09:34:32;;;;;;;24.35;13.40;;;;;;;;;;4855220;29;20127;-75
2022/08/17 09:37:25;;;;;;;26.15;13.63;;;;;;;;;;4943250;28;20047;-75
2022/08/17 09:40:13;;;;;;;22.42;14.55;;;;;;;;;;4951828;28;20416;-72
2022/08/17 09:42:47;;;;;;;23.08;14.02;;;;;;;;;;4940420;28;20055;-77
2022/08/17 09:45:38;;;;;;;25.88;15.75;;;;;;;;;;4932206;29;20063;-74
2022/08/17 09:48:14;;;;;;;28.00;16.27;;;;;;;;;;4930148;29;20043;-75
2022/08/17 09:50:50;;;;;;;26.02;15.55;;;;;;;;;;4929569;29;20047;-75
2022/08/17 09:53:17;;;;;;;25.88;19.08;;;;;;;;;;4935124;28;20062;-74
2022/08/17 09:55:46;;;;;;;29.17;19.70;;;;;;;;;;4949941;28;20058;-78
2022/08/17 09:58:23;;;;;;;25.08;17.60;;;;;;;;;;4950139;28;20054;-75
2022/08/17 10:00:56;;;;;;;25.10;17.52;;;;;;;;;;4950861;28;20571;-75
2022/08/17 10:03:52;;;;;;;27.48;18.05;;;;;;;;;;4949303;28;20576;-75
2022/08/17 10:06:46;;;;;;;22.15;16.60;;;;;;;;;;4949378;28;20362;-77
2022/08/17 10:09:18;;;;;;;25.13;16.60;;;;;;;;;;4947574;29;20062;-78
2022/08/17 10:14:47;;;;;;;26.42;16.35;;;;;;;;;;4954683;28;20075;-76
2022/08/17 10:17:36;;;;;;;25.90;16.38;;;;;;;;;;4949834;28;20055;-75
2022/08/17 10:20:08;;;;;;;20.00;14.90;;;;;;;;;;4948059;28;20119;-77
2022/08/17 10:28:22;;;;;;;20.80;12.45;;;;;;;;;;4949031;28;20058;-75
2022/08/17 10:30:52;;;;;;;21.55;11.02;;;;;;;;;;4948637;28;20055;-76
2022/08/17 10:33:31;;;;;;;15.25;9.02;;;;;;;;;;4949094;28;20051;-75
2022/08/17 10:36:11;;;;;;;19.10;8.13;;;;;;;;;;4947941;28;20126;-76
2022/08/17 10:38:45;;;;;;;10.68;5.97;;;;;;;;;;4948996;28;20518;-76
2022/08/17 10:41:30;;;;;;;12.77;5.57;;;;;;;;;;4950151;28;20122;-75
2022/08/17 10:43:59;;;;;;;12.95;5.22;;;;;;;;;;4950568;28;20047;-76
2022/08/17 10:46:55;;;;;;;13.88;6.05;;;;;;;;;;4949261;28;20535;-75
2022/08/17 10:49:28;;;;;;;10.52;6.07;;;;;;;;;;4948653;28;20047;-75
2022/08/17 10:52:21;;;;;;;12.82;6.40;;;;;;;;;;4948256;28;20047;-73
2022/08/17 10:55:07;;;;;;;12.35;8.25;;;;;;;;;;4926531;29;20739;-75
2022/08/17 10:57:46;;;;;;;16.05;9.10;;;;;;;;;;4926484;29;20135;-79
2022/08/17 11:00:18;;;;;;;16.73;8.10;;;;;;;;;;4927221;29;20050;-74
2022/08/17 11:02:53;;;;;;;15.60;7.23;;;;;;;;;;4935199;29;20052;-75
2022/08/17 11:05:41;;;;;;;18.83;7.22;;;;;;;;;;4927601;29;20086;-77
2022/08/17 11:08:32;;;;;;;16.50;7.65;;;;;;;;;;4926905;29;20278;-75
2022/08/17 11:11:34;;;;;;;16.35;7.78;;;;;;;;;;4917871;29;20055;-76
2022/08/17 11:14:27;;;;;;;16.80;7.65;;;;;;;;;;4907573;29;20052;-77
2022/08/17 11:17:01;;;;;;;14.00;6.00;;;;;;;;;;4907936;29;20047;-76
2022/08/17 11:19:42;;;;;;;11.15;6.10;;;;;;;;;;4921055;29;20106;-76
2022/08/17 11:22:28;;;;;;;10.88;6.22;;;;;;;;;;4924920;29;20302;-76
2022/08/17 11:24:55;;;;;;;16.00;5.85;;;;;;;;;;4926176;29;20059;-75
2022/08/17 11:27:26;;;;;;;13.05;6.38;;;;;;;;;;4924981;29;20048;-76
2022/08/17 11:29:58;;;;;;;14.95;7.25;;;;;;;;;;4925948;29;20047;-76
2022/08/17 11:32:52;;;;;;;13.20;7.40;;;;;;;;;;4940070;29;20061;-74
2022/08/17 11:35:21;;;;;;;11.82;6.15;;;;;;;;;;4947397;28;20066;-76
2022/08/17 11:37:59;;;;;;;12.73;5.93;;;;;;;;;;4948256;28;20055;-76
2022/08/17 11:40:45;;;;;;;11.35;6.32;;;;;;;;;;4944183;29;20043;-76
2022/08/17 11:43:33;;;;;;;19.13;6.40;;;;;;;;;;4948768;28;20055;-74
2022/08/17 11:52:44;;;;;;;14.65;6.50;;;;;;;;;;4946957;28;20058;-77
2022/08/17 11:55:31;;;;;;;12.50;6.55;;;;;;;;;;4949929;28;20065;-76
2022/08/17 11:58:05;;;;;;;12.18;6.70;;;;;;;;;;4948042;28;20055;-75
2022/08/17 12:00:49;;;;;;;11.90;6.28;;;;;;;;;;4942235;29;20054;-75
2022/08/17 12:03:41;;;;;;;12.70;6.10;;;;;;;;;;4948122;29;20497;-76
2022/08/17 12:06:16;;;;;;;7.97;5.35;;;;;;;;;;4951246;28;20153;-76
2022/08/17 12:08:52;;;;;;;10.43;5.40;;;;;;;;;;4950885;28;20055;-78
2022/08/17 12:11:26;;;;;;;13.60;5.45;;;;;;;;;;4931505;29;20047;-76
2022/08/17 12:13:56;;;;;;;12.93;5.25;;;;;;;;;;4932034;29;20505;-77
2022/08/17 12:16:23;;;;;;;10.23;5.60;;;;;;;;;;4934948;29;20052;-78
2022/08/17 12:19:01;;;;;;;9.00;5.47;;;;;;;;;;4935566;29;20502;-78
2022/08/17 12:21:29;;;;;;;12.57;5.63;;;;;;;;;;4934190;29;20059;-77
2022/08/17 12:24:05;;;;;;;10.25;5.85;;;;;;;;;;4933411;29;20498;-77
2022/08/17 12:26:33;;;;;;;14.38;5.53;;;;;;;;;;4942196;28;20125;-76
2022/08/17 12:29:06;;;;;;;9.65;5.90;;;;;;;;;;4954131;28;20101;-77
2022/08/17 12:31:35;;;;;;;11.10;5.68;;;;;;;;;;4953096;28;20485;-77
2022/08/17 12:34:04;;;;;;;10.65;5.80;;;;;;;;;;4953846;28;20544;-76
2022/08/17 12:36:32;;;;;;;13.73;6.40;;;;;;;;;;4953375;28;20043;-78
2022/08/17 12:39:06;;;;;;;11.00;6.30;;;;;;;;;;4951767;28;20485;-77
2022/08/17 12:41:39;;;;;;;10.52;6.03;;;;;;;;;;4952803;28;20051;-77
2022/08/17 12:44:26;;;;;;;14.25;6.05;;;;;;;;;;4954363;28;20054;-76
2022/08/17 12:47:05;;;;;;;8.43;5.85;;;;;;;;;;4954623;28;20051;-74
2022/08/17 12:49:37;;;;;;;9.50;5.63;;;;;;;;;;4951985;28;20052;-76
2022/08/17 12:52:08;;;;;;;15.05;5.30;;;;;;;;;;4935415;29;20395;-76
2022/08/17 12:54:34;;;;;;;9.80;5.55;;;;;;;;;;4933820;29;20151;-75
2022/08/17 12:57:05;;;;;;;8.52;5.50;;;;;;;;;;4934819;29;20600;-77
2022/08/17 12:59:32;;;;;;;12.35;6.20;;;;;;;;;;4933494;29;20102;-74
2022/08/17 13:01:59;;;;;;;14.43;6.35;;;;;;;;;;4950181;28;20055;-76
2022/08/17 13:04:25;;;;;;;12.07;5.53;;;;;;;;;;4950909;28;20499;-75
2022/08/17 13:06:51;;;;;;;18.58;5.28;;;;;;;;;;4952700;28;20078;-75
2022/08/17 13:09:30;;;;;;;10.93;5.60;;;;;;;;;;4951651;28;20061;-77
2022/08/17 13:12:01;;;;;;;9.90;5.78;;;;;;;;;;4951488;28;20119;-73
2022/08/17 13:14:27;;;;;;;12.38;6.85;;;;;;;;;;4951783;28;20094;-76
2022/08/17 13:16:59;;;;;;;12.05;5.13;;;;;;;;;;4951816;28;20043;-78
2022/08/17 13:19:31;;;;;;;12.50;5.38;;;;;;;;;;4952346;28;20138;-76
2022/08/17 13:21:59;;;;;;;8.25;4.85;;;;;;;;;;4951465;28;20079;-74
2022/08/17 13:24:28;;;;;;;8.75;4.68;;;;;;;;;;4953863;28;20043;-78
2022/08/17 13:27:00;;;;;;;12.90;4.60;;;;;;;;;;4955143;28;20047;-77
2022/08/17 13:29:52;;;;;;;7.90;3.83;;;;;;;;;;4953673;28;20087;-76
2022/08/17 13:32:29;;;;;;;12.20;3.75;;;;;;;;;;4950057;28;20098;-79
2022/08/17 13:34:57;;;;;;;15.00;4.72;;;;;;;;;;4950834;28;20408;-77
2022/08/17 13:37:27;;;;;;;15.73;4.60;;;;;;;;;;4950281;29;20047;-75
2022/08/17 13:39:59;;;;;;;13.95;4.10;;;;;;;;;;4949463;28;20051;-77
2022/08/17 13:42:40;;;;;;;8.85;4.05;;;;;;;;;;4949328;28;20506;-76
2022/08/17 13:45:31;;;;;;;10.13;4.43;;;;;;;;;;4950228;28;20441;-77
2022/08/17 13:48:15;;;;;;;7.40;3.92;;;;;;;;;;4949583;29;20136;-75
2022/08/17 13:50:53;;;;;;;10.38;4.05;;;;;;;;;;4949386;28;20043;-74
2022/08/17 13:53:22;;;;;;;8.50;4.10;;;;;;;;;;4930694;29;20043;-78
2022/08/17 13:55:57;;;;;;;8.40;4.68;;;;;;;;;;4931288;29;20071;-74
2022/08/17 13:58:29;;;;;;;10.20;4.20;;;;;;;;;;4930651;29;20048;-77
2022/08/17 14:00:55;;;;;;;12.50;4.25;;;;;;;;;;4930712;29;20052;-76
2022/08/17 14:03:22;;;;;;;7.82;4.45;;;;;;;;;;4931278;29;20051;-75
2022/08/17 14:05:50;;;;;;;9.25;4.45;;;;;;;;;;4930062;29;20063;-78
2022/08/17 14:08:18;;;;;;;11.95;4.65;;;;;;;;;;4935754;28;20130;-76
2022/08/17 14:10:56;;;;;;;11.48;4.70;;;;;;;;;;4950748;28;20192;-78
2022/08/17 14:13:23;;;;;;;11.57;3.85;;;;;;;;;;4950730;28;20058;-77
2022/08/17 14:15:48;;;;;;;7.00;2.75;;;;;;;;;;4950361;28;20521;-77
2022/08/17 14:18:16;;;;;;;21.15;3.20;;;;;;;;;;4949534;29;20130;-75
2022/08/17 14:20:43;;;;;;;11.43;2.88;;;;;;;;;;4951281;28;20591;-75
2022/08/17 14:23:09;;;;;;;12.38;2.80;;;;;;;;;;4951992;28;20516;-77
2022/08/17 14:25:36;;;;;;;7.72;2.60;;;;;;;;;;4949740;28;20094;-79
2022/08/17 14:28:05;;;;;;;9.00;2.80;;;;;;;;;;4949192;28;20051;-76
2022/08/17 14:30:31;;;;;;;4.18;2.20;;;;;;;;;;4948958;28;20071;-77
2022/08/17 14:32:57;;;;;;;5.65;2.45;;;;;;;;;;4941044;28;20450;-76
2022/08/17 14:35:26;;;;;;;6.55;2.88;;;;;;;;;;4944479;29;20082;-76
2022/08/17 14:37:52;;;;;;;7.47;2.30;;;;;;;;;;4948480;28;20122;-75
2022/08/17 14:40:21;;;;;;;4.20;2.45;;;;;;;;;;4948353;28;20051;-77
2022/08/17 14:42:47;;;;;;;7.75;2.28;;;;;;;;;;4949640;28;20098;-77
2022/08/17 14:45:13;;;;;;;6.88;2.40;;;;;;;;;;4950551;28;20047;-77
2022/08/17 14:47:40;;;;;;;7.43;2.13;;;;;;;;;;4950784;28;20134;-77
2022/08/17 14:50:10;;;;;;;5.85;2.35;;;;;;;;;;4949276;29;20107;-75
2022/08/17 14:52:38;;;;;;;6.57;2.05;;;;;;;;;;4948121;28;20043;-75
2022/08/17 14:55:05;;;;;;;7.55;2.17;;;;;;;;;;4949622;28;20369;-74
2022/08/17 14:57:32;;;;;;;5.63;2.10;;;;;;;;;;4949281;29;20137;-75
2022/08/17 14:59:58;;;;;;;4.70;2.20;;;;;;;;;;4950243;28;20516;-77
2022/08/17 15:02:29;;;;;;;7.50;2.22;;;;;;;;;;4949348;29;20050;-77
2022/08/17 15:05:03;;;;;;;11.90;2.47;;;;;;;;;;4949002;28;20121;-75
2022/08/17 15:07:30;;;;;;;5.63;2.03;;;;;;;;;;4947912;28;20200;-76
2022/08/17 15:09:57;;;;;;;7.38;2.10;;;;;;;;;;4949261;29;20051;-74
2022/08/17 15:12:23;;;;;;;8.23;2.03;;;;;;;;;;4929755;28;20059;-75
2022/08/17 15:14:49;;;;;;;7.22;2.13;;;;;;;;;;4942128;29;20054;-77
2022/08/17 15:17:15;;;;;;;10.07;2.50;;;;;;;;;;4945684;28;20122;-75
2022/08/17 15:19:41;;;;;;;8.35;2.10;;;;;;;;;;4929221;29;20051;-75
2022/08/17 15:22:22;;;;;;;5.22;1.88;;;;;;;;;;4929411;29;20039;-76
2022/08/17 15:24:48;;;;;;;6.68;2.10;;;;;;;;;;4929283;29;20059;-77
2022/08/17 15:27:14;;;;;;;9.10;2.08;;;;;;;;;;4929535;29;20047;-76
2022/08/17 15:29:40;;;;;;;7.20;2.20;;;;;;;;;;4928759;29;20048;-76
2022/08/17 15:32:06;;;;;;;10.00;2.13;;;;;;;;;;4940484;29;20078;-76
2022/08/17 15:34:31;;;;;;;13.60;1.98;;;;;;;;;;4948783;28;20118;-76
2022/08/17 15:36:57;;;;;;;9.43;2.17;;;;;;;;;;4949072;28;20043;-76
2022/08/17 15:39:23;;;;;;;3.80;1.73;;;;;;;;;;4948294;28;20306;-74